createdAt,value
2018-03-27T00:00:14.813Z,39.40
2018-03-27T00:00:46.844Z,39.20
2018-03-27T00:01:18.892Z,39.20
2018-03-27T00:01:50.912Z,39.00
2018-03-27T00:02:23.693Z,39.00
2018-03-27T00:02:55.748Z,39.00
2018-03-27T00:03:28.513Z,39.00
2018-03-27T00:04:00.576Z,39.00
2018-03-27T00:04:32.614Z,39.10
2018-03-27T00:05:04.732Z,39.10
2018-03-27T00:05:36.751Z,39.30
2018-03-27T00:06:08.779Z,39.20
2018-03-27T00:06:40.845Z,39.30
2018-03-27T00:07:12.868Z,39.10
2018-03-27T00:07:44.933Z,39.20
2018-03-27T00:08:16.947Z,39.30
2018-03-27T00:08:49.792Z,39.30
2018-03-27T00:09:21.819Z,39.30
2018-03-27T00:09:53.824Z,39.40
2018-03-27T00:10:26.635Z,39.10
2018-03-27T00:10:58.646Z,39.10
2018-03-27T00:11:31.438Z,39.20
2018-03-27T00:12:03.463Z,39.10
2018-03-27T00:12:36.261Z,39.20
2018-03-27T00:13:08.309Z,39.20
2018-03-27T00:13:40.361Z,39.50
2018-03-27T00:14:12.396Z,39.30
2018-03-27T00:14:45.236Z,39.20
2018-03-27T00:15:17.235Z,39.10
2018-03-27T00:15:49.285Z,39.40
2018-03-27T00:16:21.314Z,39.20
2018-03-27T00:16:54.106Z,39.20
2018-03-27T00:17:26.148Z,39.10
2018-03-27T00:17:58.165Z,39.10
2018-03-27T00:18:30.197Z,39.40
2018-03-27T00:19:02.255Z,39.20
2018-03-27T00:19:34.281Z,39.10
2018-03-27T00:20:06.355Z,39.20
2018-03-27T00:20:38.388Z,39.40
2018-03-27T00:21:10.401Z,39.10
2018-03-27T00:21:42.437Z,39.10
2018-03-27T00:22:15.237Z,39.40
2018-03-27T00:22:47.270Z,39.40
2018-03-27T00:23:20.057Z,39.20
2018-03-27T00:23:52.179Z,39.20
2018-03-27T00:24:24.133Z,39.10
2018-03-27T00:24:56.923Z,39.20
2018-03-27T00:25:28.964Z,39.20
2018-03-27T00:26:00.988Z,39.20
2018-03-27T00:26:33.041Z,39.20
2018-03-27T00:27:05.076Z,39.30
2018-03-27T00:27:37.101Z,39.20
2018-03-27T00:28:09.132Z,39.30
2018-03-27T00:28:41.173Z,39.00
2018-03-27T00:29:13.225Z,39.10
2018-03-27T00:29:45.262Z,39.10
2018-03-27T00:30:18.094Z,39.30
2018-03-27T00:30:50.106Z,39.30
2018-03-27T00:31:22.133Z,39.20
2018-03-27T00:31:54.917Z,39.10
2018-03-27T00:32:26.958Z,39.10
2018-03-27T00:32:59.791Z,39.20
2018-03-27T00:33:31.788Z,39.20
2018-03-27T00:34:04.580Z,39.10
2018-03-27T00:34:36.622Z,39.10
2018-03-27T00:35:08.646Z,39.30
2018-03-27T00:35:41.457Z,39.20
2018-03-27T00:36:13.488Z,39.10
2018-03-27T00:36:45.602Z,39.20
2018-03-27T00:37:17.589Z,39.20
2018-03-27T00:37:49.623Z,39.30
2018-03-27T00:38:22.427Z,39.30
2018-03-27T00:38:54.465Z,39.20
2018-03-27T00:39:26.489Z,39.10
2018-03-27T00:39:59.271Z,39.00
2018-03-27T00:40:31.301Z,38.90
2018-03-27T00:41:03.333Z,39.00
2018-03-27T00:41:35.388Z,39.10
2018-03-27T00:42:07.421Z,39.00
2018-03-27T00:42:39.500Z,39.10
2018-03-27T00:43:11.538Z,39.00
2018-03-27T00:43:43.557Z,39.00
2018-03-27T00:44:15.567Z,39.10
2018-03-27T00:44:48.360Z,39.00
2018-03-27T00:45:20.404Z,39.00
2018-03-27T00:45:52.432Z,39.10
2018-03-27T00:46:24.469Z,39.10
2018-03-27T00:46:56.507Z,39.10
2018-03-27T00:47:28.548Z,38.90
2018-03-27T00:48:00.563Z,39.00
2018-03-27T00:48:32.603Z,39.00
2018-03-27T00:49:05.397Z,39.00
2018-03-27T00:49:37.416Z,38.90
2018-03-27T00:50:10.217Z,38.90
2018-03-27T00:50:42.248Z,38.90
2018-03-27T00:51:15.056Z,39.20
2018-03-27T00:51:47.097Z,39.20
2018-03-27T00:52:19.155Z,39.10
2018-03-27T00:52:51.231Z,39.10
2018-03-27T00:53:23.244Z,39.00
2018-03-27T00:53:55.283Z,39.00
2018-03-27T00:54:27.403Z,39.00
2018-03-27T00:54:59.420Z,39.10
2018-03-27T00:55:31.463Z,39.20
2018-03-27T00:56:03.466Z,39.20
2018-03-27T00:56:35.507Z,39.70
2018-03-27T00:57:07.524Z,39.10
2018-03-27T00:57:39.559Z,39.20
2018-03-27T00:58:11.599Z,39.10
2018-03-27T00:58:43.643Z,38.90
2018-03-27T00:59:16.417Z,39.10
2018-03-27T00:59:48.448Z,39.00
2018-03-27T01:00:21.272Z,39.20
2018-03-27T01:00:53.311Z,39.10
2018-03-27T01:01:25.339Z,38.90
2018-03-27T01:01:57.453Z,38.90
2018-03-27T01:02:29.451Z,39.00
2018-03-27T01:03:01.460Z,38.90
2018-03-27T01:03:34.261Z,39.00
2018-03-27T01:04:06.294Z,39.00
2018-03-27T01:04:39.082Z,38.90
2018-03-27T01:05:11.151Z,38.90
2018-03-27T01:05:43.162Z,39.10
2018-03-27T01:06:15.175Z,39.10
2018-03-27T01:06:47.186Z,39.00
2018-03-27T01:07:19.255Z,38.90
2018-03-27T01:07:51.352Z,39.00
2018-03-27T01:08:23.356Z,39.00
2018-03-27T01:08:55.403Z,39.10
2018-03-27T01:09:27.404Z,38.90
2018-03-27T01:09:59.428Z,38.90
2018-03-27T01:10:31.462Z,39.30
2018-03-27T01:11:03.491Z,39.00
2018-03-27T01:11:35.524Z,39.00
2018-03-27T01:12:08.362Z,39.60
2018-03-27T01:12:40.435Z,39.00
2018-03-27T01:13:12.429Z,39.00
2018-03-27T01:13:44.444Z,39.00
2018-03-27T01:14:17.253Z,39.00
2018-03-27T01:14:49.278Z,38.90
2018-03-27T01:15:22.147Z,39.10
2018-03-27T01:15:54.145Z,39.10
2018-03-27T01:16:26.172Z,39.10
2018-03-27T01:16:58.205Z,38.80
2018-03-27T01:17:31.010Z,39.00
2018-03-27T01:18:03.063Z,38.90
2018-03-27T01:18:35.094Z,39.00
2018-03-27T01:19:07.128Z,38.80
2018-03-27T01:19:39.916Z,38.80
2018-03-27T01:20:11.948Z,38.80
2018-03-27T01:20:44.748Z,38.90
2018-03-27T01:21:16.914Z,38.90
2018-03-27T01:21:48.932Z,38.90
2018-03-27T01:22:20.966Z,38.70
2018-03-27T01:22:53.748Z,38.80
2018-03-27T01:23:25.782Z,38.80
2018-03-27T01:23:58.588Z,38.90
2018-03-27T01:24:30.629Z,38.90
2018-03-27T01:25:02.653Z,38.90
2018-03-27T01:25:35.462Z,39.00
2018-03-27T01:26:07.483Z,39.00
2018-03-27T01:26:39.518Z,38.70
2018-03-27T01:27:12.312Z,39.40
2018-03-27T01:27:44.327Z,38.80
2018-03-27T01:28:16.356Z,38.80
2018-03-27T01:28:48.422Z,38.90
2018-03-27T01:29:20.454Z,38.90
2018-03-27T01:29:52.474Z,39.00
2018-03-27T01:30:24.501Z,38.90
2018-03-27T01:30:57.326Z,38.90
2018-03-27T01:31:29.371Z,38.90
2018-03-27T01:32:01.380Z,38.80
2018-03-27T01:32:33.412Z,38.90
2018-03-27T01:33:05.441Z,38.80
2018-03-27T01:33:37.492Z,38.90
2018-03-27T01:34:09.520Z,38.90
2018-03-27T01:34:41.540Z,38.90
2018-03-27T01:35:13.569Z,39.00
2018-03-27T01:35:45.633Z,39.00
2018-03-27T01:36:18.416Z,38.90
2018-03-27T01:36:50.441Z,38.80
2018-03-27T01:37:22.481Z,38.60
2018-03-27T01:37:54.510Z,38.80
2018-03-27T01:38:26.523Z,38.90
2018-03-27T01:38:58.552Z,38.90
2018-03-27T01:39:31.377Z,38.90
2018-03-27T01:40:03.400Z,38.90
2018-03-27T01:40:35.435Z,38.90
2018-03-27T01:41:08.219Z,38.90
2018-03-27T01:41:40.243Z,38.90
2018-03-27T01:42:13.029Z,38.90
2018-03-27T01:42:45.096Z,38.80
2018-03-27T01:43:17.162Z,39.00
2018-03-27T01:43:49.186Z,39.10
2018-03-27T01:44:21.204Z,39.10
2018-03-27T01:44:53.230Z,39.00
2018-03-27T01:45:25.308Z,38.90
2018-03-27T01:45:57.290Z,38.80
2018-03-27T01:46:29.340Z,38.80
2018-03-27T01:47:02.159Z,38.80
2018-03-27T01:47:34.161Z,38.80
2018-03-27T01:48:06.216Z,38.80
2018-03-27T01:48:39.003Z,38.90
2018-03-27T01:49:11.019Z,38.90
2018-03-27T01:49:43.832Z,38.90
2018-03-27T01:50:15.871Z,38.90
2018-03-27T01:50:47.912Z,38.70
2018-03-27T01:51:19.947Z,38.90
2018-03-27T01:51:52.751Z,38.80
2018-03-27T01:52:24.789Z,38.70
2018-03-27T01:52:56.815Z,38.80
2018-03-27T01:53:29.614Z,39.00
2018-03-27T01:54:01.663Z,38.90
2018-03-27T01:54:33.680Z,38.90
2018-03-27T01:55:06.488Z,38.70
2018-03-27T01:55:38.505Z,38.70
2018-03-27T01:56:11.317Z,39.00
2018-03-27T01:56:43.341Z,39.00
2018-03-27T01:57:15.370Z,38.70
2018-03-27T01:57:48.182Z,38.70
2018-03-27T01:58:20.189Z,38.70
2018-03-27T01:58:52.983Z,39.00
2018-03-27T01:59:25.025Z,38.90
2018-03-27T01:59:57.814Z,38.90
2018-03-27T02:00:29.841Z,38.90
2018-03-27T02:01:02.621Z,38.80
2018-03-27T02:01:34.660Z,38.80
2018-03-27T02:02:07.440Z,39.00
2018-03-27T02:02:39.609Z,39.00
2018-03-27T02:03:11.662Z,38.90
2018-03-27T02:03:43.688Z,39.00
2018-03-27T02:04:16.478Z,39.00
2018-03-27T02:04:48.497Z,39.00
2018-03-27T02:05:21.308Z,39.00
2018-03-27T02:05:53.365Z,39.00
2018-03-27T02:06:25.365Z,38.80
2018-03-27T02:06:58.170Z,38.90
2018-03-27T02:07:30.188Z,38.80
2018-03-27T02:08:02.989Z,38.90
2018-03-27T02:08:35.019Z,38.90
2018-03-27T02:09:07.792Z,39.00
2018-03-27T02:09:39.853Z,38.90
2018-03-27T02:10:11.877Z,38.80
2018-03-27T02:10:44.672Z,39.20
2018-03-27T02:11:16.718Z,38.70
2018-03-27T02:11:49.502Z,38.90
2018-03-27T02:12:21.571Z,38.90
2018-03-27T02:12:53.606Z,38.90
2018-03-27T02:13:25.655Z,38.70
2018-03-27T02:13:57.671Z,38.70
2018-03-27T02:14:30.462Z,39.70
2018-03-27T02:15:02.494Z,39.00
2018-03-27T02:15:34.508Z,39.10
2018-03-27T02:16:06.533Z,39.10
2018-03-27T02:16:38.563Z,38.90
2018-03-27T02:17:10.632Z,38.90
2018-03-27T02:17:42.654Z,38.80
2018-03-27T02:18:15.436Z,38.80
2018-03-27T02:18:47.461Z,38.80
2018-03-27T02:19:19.491Z,38.90
2018-03-27T02:19:51.512Z,38.90
2018-03-27T02:20:23.561Z,38.90
2018-03-27T02:20:55.584Z,38.90
2018-03-27T02:21:28.374Z,38.90
2018-03-27T02:22:00.402Z,38.90
2018-03-27T02:22:33.199Z,38.80
2018-03-27T02:23:05.221Z,38.80
2018-03-27T02:23:38.011Z,38.80
2018-03-27T02:24:10.039Z,38.80
2018-03-27T02:24:42.830Z,39.00
2018-03-27T02:25:14.857Z,39.00
2018-03-27T02:25:47.690Z,38.90
2018-03-27T02:26:19.722Z,38.80
2018-03-27T02:26:51.737Z,38.90
2018-03-27T02:27:23.776Z,38.90
2018-03-27T02:27:56.569Z,38.90
2018-03-27T02:28:28.616Z,38.90
2018-03-27T02:29:00.641Z,38.80
2018-03-27T02:29:32.714Z,38.70
2018-03-27T02:30:05.497Z,39.00
2018-03-27T02:30:37.521Z,39.00
2018-03-27T02:31:10.325Z,38.90
2018-03-27T02:31:42.341Z,38.90
2018-03-27T02:32:15.144Z,39.00
2018-03-27T02:32:47.172Z,39.00
2018-03-27T02:33:19.217Z,38.80
2018-03-27T02:33:52.036Z,39.00
2018-03-27T02:34:24.058Z,39.00
2018-03-27T02:34:56.206Z,38.90
2018-03-27T02:35:28.122Z,38.90
2018-03-27T02:36:00.162Z,38.90
2018-03-27T02:36:32.178Z,38.90
2018-03-27T02:37:04.234Z,38.90
2018-03-27T02:37:36.313Z,39.00
2018-03-27T02:38:08.327Z,38.90
2018-03-27T02:38:40.350Z,38.80
2018-03-27T02:39:13.139Z,38.90
2018-03-27T02:39:45.253Z,38.90
2018-03-27T02:40:17.244Z,38.90
2018-03-27T02:40:49.268Z,38.90
2018-03-27T02:41:22.057Z,38.80
2018-03-27T02:41:54.856Z,38.90
2018-03-27T02:42:26.873Z,38.90
2018-03-27T02:42:58.904Z,39.00
2018-03-27T02:43:31.697Z,38.80
2018-03-27T02:44:03.740Z,38.80
2018-03-27T02:44:36.530Z,38.90
2018-03-27T02:45:08.545Z,38.90
2018-03-27T02:45:41.332Z,39.10
2018-03-27T02:46:13.366Z,39.00
2018-03-27T02:46:46.162Z,38.90
2018-03-27T02:47:18.195Z,38.80
2018-03-27T02:47:50.989Z,39.00
2018-03-27T02:48:23.008Z,39.00
2018-03-27T02:48:55.814Z,38.90
2018-03-27T02:49:27.846Z,38.80
2018-03-27T02:49:59.908Z,38.90
2018-03-27T02:50:31.970Z,38.90
2018-03-27T02:51:03.996Z,38.80
2018-03-27T02:51:36.075Z,38.90
2018-03-27T02:52:08.110Z,38.90
2018-03-27T02:52:40.150Z,38.70
2018-03-27T02:53:12.956Z,38.80
2018-03-27T02:53:44.995Z,38.80
2018-03-27T02:54:17.022Z,39.00
2018-03-27T02:54:49.058Z,38.70
2018-03-27T02:55:21.087Z,38.90
2018-03-27T02:55:53.117Z,38.80
2018-03-27T02:56:25.168Z,38.90
2018-03-27T02:56:57.206Z,38.90
2018-03-27T02:57:29.229Z,38.70
2018-03-27T02:58:02.008Z,38.80
2018-03-27T02:58:34.037Z,38.80
2018-03-27T02:59:06.859Z,38.80
2018-03-27T02:59:38.898Z,38.80
2018-03-27T03:00:10.921Z,38.90
2018-03-27T03:00:43.742Z,39.00
2018-03-27T03:01:15.771Z,39.00
2018-03-27T03:01:47.834Z,39.00
2018-03-27T03:02:19.868Z,38.90
2018-03-27T03:02:52.112Z,38.90
2018-03-27T03:03:24.131Z,38.80
2018-03-27T03:03:56.176Z,38.70
2018-03-27T03:04:28.368Z,38.90
2018-03-27T03:05:01.143Z,39.00
2018-03-27T03:05:33.176Z,39.00
2018-03-27T03:06:05.957Z,39.00
2018-03-27T03:06:38.004Z,39.00
2018-03-27T03:07:10.794Z,39.10
2018-03-27T03:07:42.818Z,39.00
2018-03-27T03:08:14.859Z,39.00
2018-03-27T03:08:47.721Z,39.20
2018-03-27T03:09:20.516Z,39.00
2018-03-27T03:09:52.557Z,39.00
2018-03-27T03:10:24.597Z,39.00
2018-03-27T03:10:57.418Z,38.80
2018-03-27T03:11:29.448Z,38.80
2018-03-27T03:12:01.502Z,38.80
2018-03-27T03:12:33.526Z,39.00
2018-03-27T03:13:06.351Z,39.00
2018-03-27T03:13:38.390Z,38.90
2018-03-27T03:14:10.415Z,38.90
2018-03-27T03:14:42.452Z,38.90
2018-03-27T03:15:15.251Z,38.80
2018-03-27T03:15:47.889Z,38.80
2018-03-27T03:16:19.938Z,38.80
2018-03-27T03:16:52.737Z,38.90
2018-03-27T03:17:24.774Z,38.90
2018-03-27T03:17:56.801Z,39.00
2018-03-27T03:18:28.830Z,39.00
2018-03-27T03:19:00.870Z,39.00
2018-03-27T03:19:32.941Z,38.90
2018-03-27T03:20:04.978Z,38.80
2018-03-27T03:20:37.016Z,38.90
2018-03-27T03:21:09.056Z,39.10
2018-03-27T03:21:41.102Z,38.90
2018-03-27T03:22:13.116Z,39.00
2018-03-27T03:22:45.963Z,39.10
2018-03-27T03:23:18.062Z,39.10
2018-03-27T03:23:50.091Z,38.90
2018-03-27T03:24:22.910Z,38.90
2018-03-27T03:24:54.935Z,38.90
2018-03-27T03:25:27.010Z,39.00
2018-03-27T03:25:59.042Z,39.00
2018-03-27T03:26:31.064Z,39.10
2018-03-27T03:27:03.862Z,39.00
2018-03-27T03:27:35.877Z,39.00
2018-03-27T03:28:08.698Z,38.90
2018-03-27T03:28:40.716Z,38.90
2018-03-27T03:29:12.748Z,38.70
2018-03-27T03:29:44.765Z,38.70
2018-03-27T03:30:16.826Z,39.20
2018-03-27T03:30:48.875Z,39.00
2018-03-27T03:31:20.909Z,38.80
2018-03-27T03:31:52.976Z,38.90
2018-03-27T03:32:25.094Z,38.80
2018-03-27T03:32:57.119Z,38.90
2018-03-27T03:33:29.926Z,39.00
2018-03-27T03:34:01.943Z,39.00
2018-03-27T03:34:34.750Z,39.10
2018-03-27T03:35:06.762Z,39.00
2018-03-27T03:35:39.585Z,38.90
2018-03-27T03:36:11.599Z,38.90
2018-03-27T03:36:43.713Z,38.90
2018-03-27T03:37:15.749Z,38.90
2018-03-27T03:37:47.756Z,38.70
2018-03-27T03:38:19.786Z,39.00
2018-03-27T03:38:52.610Z,39.10
2018-03-27T03:39:24.651Z,39.00
2018-03-27T03:39:56.665Z,38.90
2018-03-27T03:40:28.712Z,38.90
2018-03-27T03:41:01.495Z,38.80
2018-03-27T03:41:33.550Z,38.80
2018-03-27T03:42:05.613Z,38.90
2018-03-27T03:42:37.634Z,39.00
2018-03-27T03:43:10.440Z,39.00
2018-03-27T03:43:42.499Z,39.00
2018-03-27T03:44:14.562Z,38.90
2018-03-27T03:44:46.568Z,38.90
2018-03-27T03:45:18.600Z,38.90
2018-03-27T03:45:50.624Z,39.00
2018-03-27T03:46:22.681Z,38.80
2018-03-27T03:46:54.728Z,39.00
2018-03-27T03:47:26.764Z,38.90
2018-03-27T03:47:58.806Z,39.10
2018-03-27T03:48:30.848Z,38.80
2018-03-27T03:49:02.877Z,39.00
2018-03-27T03:49:34.934Z,38.80
2018-03-27T03:50:06.988Z,38.80
2018-03-27T03:50:39.104Z,38.80
2018-03-27T03:51:11.137Z,38.80
2018-03-27T03:51:43.187Z,38.90
2018-03-27T03:52:15.224Z,38.80
2018-03-27T03:52:47.237Z,38.90
2018-03-27T03:53:19.272Z,38.90
2018-03-27T03:53:52.073Z,39.00
2018-03-27T03:54:24.120Z,39.00
2018-03-27T03:54:56.150Z,38.90
2018-03-27T03:55:28.947Z,39.00
2018-03-27T03:56:00.975Z,39.00
2018-03-27T03:56:33.070Z,38.90
2018-03-27T03:57:05.101Z,38.90
2018-03-27T03:57:37.130Z,39.00
2018-03-27T03:58:09.148Z,38.90
2018-03-27T03:58:41.200Z,38.80
2018-03-27T03:59:13.236Z,38.80
2018-03-27T03:59:45.301Z,38.90
2018-03-27T04:00:17.320Z,39.00
2018-03-27T04:00:49.347Z,38.90
2018-03-27T04:01:21.387Z,39.00
2018-03-27T04:01:53.451Z,38.90
2018-03-27T04:02:25.469Z,39.00
2018-03-27T04:02:58.462Z,39.50
2018-03-27T04:03:30.501Z,39.00
2018-03-27T04:04:03.292Z,39.00
2018-03-27T04:04:35.334Z,39.00
2018-03-27T04:05:08.102Z,39.00
2018-03-27T04:05:40.176Z,39.00
2018-03-27T04:06:12.947Z,38.90
2018-03-27T04:06:44.984Z,38.80
2018-03-27T04:07:17.015Z,39.00
2018-03-27T04:07:49.835Z,39.00
2018-03-27T04:08:21.848Z,39.00
2018-03-27T04:08:53.881Z,38.90
2018-03-27T04:09:26.684Z,39.50
2018-03-27T04:09:58.697Z,38.90
2018-03-27T04:10:31.508Z,38.80
2018-03-27T04:11:03.533Z,38.70
2018-03-27T04:11:36.348Z,38.80
2018-03-27T04:12:08.381Z,38.80
2018-03-27T04:12:40.431Z,38.80
2018-03-27T04:13:12.479Z,38.70
2018-03-27T04:13:44.643Z,38.70
2018-03-27T04:14:16.683Z,38.80
2018-03-27T04:14:48.706Z,38.80
2018-03-27T04:15:21.563Z,38.70
2018-03-27T04:15:53.596Z,38.70
2018-03-27T04:16:25.649Z,39.40
2018-03-27T04:16:57.679Z,38.90
2018-03-27T04:17:29.688Z,39.00
2018-03-27T04:18:02.507Z,38.90
2018-03-27T04:18:34.531Z,38.90
2018-03-27T04:19:06.574Z,38.90
2018-03-27T04:19:38.603Z,38.80
2018-03-27T04:20:11.421Z,38.70
2018-03-27T04:20:43.454Z,38.70
2018-03-27T04:21:15.499Z,38.70
2018-03-27T04:21:47.532Z,38.70
2018-03-27T04:22:20.325Z,39.10
2018-03-27T04:22:52.370Z,39.00
2018-03-27T04:23:24.415Z,39.00
2018-03-27T04:23:57.196Z,38.70
2018-03-27T04:24:29.352Z,38.60
2018-03-27T04:25:01.359Z,38.60
2018-03-27T04:25:33.431Z,38.50
2018-03-27T04:26:06.253Z,38.80
2018-03-27T04:26:38.251Z,38.70
2018-03-27T04:27:11.085Z,38.90
2018-03-27T04:27:43.104Z,38.80
2018-03-27T04:28:15.134Z,35.70
2018-03-27T04:28:47.220Z,37.70
2018-03-27T04:29:19.250Z,38.40
2018-03-27T04:29:51.256Z,39.40
2018-03-27T04:30:23.299Z,39.80
2018-03-27T04:30:55.368Z,40.10
2018-03-27T04:31:27.398Z,40.50
2018-03-27T04:31:59.417Z,41.00
2018-03-27T04:32:31.445Z,41.40
2018-03-27T04:33:03.487Z,41.10
2018-03-27T04:33:36.323Z,40.90
2018-03-27T04:34:08.352Z,40.90
2018-03-27T04:34:40.371Z,41.20
2018-03-27T04:35:12.406Z,41.00
2018-03-27T04:35:45.219Z,40.70
2018-03-27T04:36:17.237Z,40.60
2018-03-27T04:36:49.286Z,40.50
2018-03-27T04:37:21.319Z,40.40
2018-03-27T04:37:54.108Z,41.10
2018-03-27T04:38:26.183Z,40.30
2018-03-27T04:38:58.196Z,40.20
2018-03-27T04:39:31.012Z,40.20
2018-03-27T04:40:03.028Z,40.10
2018-03-27T04:40:35.077Z,39.90
2018-03-27T04:41:07.891Z,39.70
2018-03-27T04:41:40.106Z,39.70
2018-03-27T04:42:12.910Z,39.70
2018-03-27T04:42:44.950Z,39.70
2018-03-27T04:43:16.993Z,39.70
2018-03-27T04:43:49.010Z,41.00
2018-03-27T04:44:21.836Z,39.90
2018-03-27T04:44:53.863Z,39.80
2018-03-27T04:45:25.905Z,40.50
2018-03-27T04:45:57.972Z,40.50
2018-03-27T04:46:30.008Z,39.40
2018-03-27T04:47:02.046Z,41.20
2018-03-27T04:47:34.849Z,42.30
2018-03-27T04:48:06.929Z,42.20
2018-03-27T04:48:39.014Z,43.60
2018-03-27T04:49:11.801Z,43.90
2018-03-27T04:49:43.833Z,43.90
2018-03-27T04:50:16.653Z,45.40
2018-03-27T04:50:48.668Z,45.40
2018-03-27T04:51:20.709Z,45.70
2018-03-27T04:51:53.533Z,46.40
2018-03-27T04:52:25.597Z,46.30
2018-03-27T04:52:57.672Z,46.60
2018-03-27T04:53:29.692Z,47.00
2018-03-27T04:54:01.717Z,46.20
2018-03-27T04:54:33.776Z,47.10
2018-03-27T04:55:05.814Z,47.00
2018-03-27T04:55:37.854Z,48.40
2018-03-27T04:56:09.924Z,47.80
2018-03-27T04:56:41.965Z,47.00
2018-03-27T04:57:13.996Z,47.50
2018-03-27T04:57:46.818Z,47.90
2018-03-27T04:58:18.858Z,47.80
2018-03-27T04:58:50.875Z,49.60
2018-03-27T04:59:23.677Z,49.90
2018-03-27T04:59:55.711Z,49.90
2018-03-27T05:00:27.784Z,49.60
2018-03-27T05:00:59.807Z,49.40
2018-03-27T05:01:31.920Z,49.80
2018-03-27T05:02:03.937Z,49.10
2018-03-27T05:02:35.987Z,50.30
2018-03-27T05:03:08.009Z,50.60
2018-03-27T05:03:40.051Z,50.70
2018-03-27T05:04:12.836Z,50.80
2018-03-27T05:04:44.857Z,50.80
2018-03-27T05:05:17.654Z,51.10
2018-03-27T05:05:49.682Z,51.10
2018-03-27T05:06:22.496Z,51.00
2018-03-27T05:06:54.530Z,51.00
2018-03-27T05:07:26.555Z,50.20
2018-03-27T05:07:59.376Z,49.10
2018-03-27T05:08:31.396Z,48.90
2018-03-27T05:09:03.425Z,50.60
2018-03-27T05:09:36.253Z,48.80
2018-03-27T05:10:08.266Z,48.70
2018-03-27T05:10:40.300Z,51.20
2018-03-27T05:11:12.317Z,48.90
2018-03-27T05:11:44.336Z,44.80
2018-03-27T05:12:16.366Z,42.70
2018-03-27T05:12:48.406Z,43.10
2018-03-27T05:13:21.209Z,43.90
2018-03-27T05:13:53.251Z,43.90
2018-03-27T05:14:25.283Z,44.30
2018-03-27T05:14:58.069Z,44.90
2018-03-27T05:15:30.116Z,44.90
2018-03-27T05:16:02.916Z,45.70
2018-03-27T05:16:34.961Z,45.60
2018-03-27T05:17:06.986Z,45.90
2018-03-27T05:17:39.012Z,45.90
2018-03-27T05:18:11.821Z,46.00
2018-03-27T05:18:43.870Z,45.90
2018-03-27T05:19:15.899Z,46.00
2018-03-27T05:19:48.679Z,45.80
2018-03-27T05:20:20.706Z,45.70
2018-03-27T05:20:53.489Z,45.70
2018-03-27T05:21:25.525Z,45.70
2018-03-27T05:21:58.316Z,45.80
2018-03-27T05:22:30.352Z,45.70
2018-03-27T05:23:03.148Z,46.00
2018-03-27T05:23:35.168Z,45.90
2018-03-27T05:24:07.982Z,45.90
2018-03-27T05:24:40.008Z,45.80
2018-03-27T05:25:12.037Z,45.70
2018-03-27T05:25:44.825Z,45.40
2018-03-27T05:26:16.857Z,45.40
2018-03-27T05:26:49.657Z,45.50
2018-03-27T05:27:21.673Z,45.50
2018-03-27T05:27:54.456Z,45.30
2018-03-27T05:28:26.495Z,45.20
2018-03-27T05:28:59.284Z,45.40
2018-03-27T05:29:31.313Z,45.30
2018-03-27T05:30:03.351Z,45.30
2018-03-27T05:30:35.373Z,45.90
2018-03-27T05:31:07.389Z,45.20
2018-03-27T05:31:39.416Z,45.10
2018-03-27T05:32:12.217Z,45.00
2018-03-27T05:32:44.245Z,45.00
2018-03-27T05:33:17.023Z,45.00
2018-03-27T05:33:49.048Z,44.90
2018-03-27T05:34:21.092Z,44.80
2018-03-27T05:34:53.123Z,44.90
2018-03-27T05:35:25.160Z,44.80
2018-03-27T05:35:57.180Z,44.70
2018-03-27T05:36:29.228Z,44.70
2018-03-27T05:37:02.023Z,44.40
2018-03-27T05:37:34.074Z,44.40
2018-03-27T05:38:06.143Z,44.30
2018-03-27T05:38:38.232Z,44.30
2018-03-27T05:39:10.228Z,44.30
2018-03-27T05:39:42.247Z,44.20
2018-03-27T05:40:15.029Z,44.10
2018-03-27T05:40:47.064Z,44.10
2018-03-27T05:41:19.857Z,44.20
2018-03-27T05:41:51.917Z,44.00
2018-03-27T05:42:23.936Z,44.00
2018-03-27T05:42:56.726Z,43.90
2018-03-27T05:43:28.762Z,43.90
2018-03-27T05:44:00.760Z,43.90
2018-03-27T05:44:32.796Z,43.20
2018-03-27T05:45:04.820Z,43.70
2018-03-27T05:45:36.866Z,43.70
2018-03-27T05:46:09.658Z,43.50
2018-03-27T05:46:41.729Z,43.50
2018-03-27T05:47:14.461Z,43.60
2018-03-27T05:47:46.492Z,43.50
2018-03-27T05:48:19.293Z,43.40
2018-03-27T05:48:51.326Z,43.40
2018-03-27T05:49:24.225Z,43.30
2018-03-27T05:49:56.273Z,43.30
2018-03-27T05:50:28.317Z,43.30
2018-03-27T05:51:00.353Z,43.40
2018-03-27T05:51:32.417Z,43.30
2018-03-27T05:52:04.449Z,43.30
2018-03-27T05:52:37.240Z,43.10
2018-03-27T05:53:09.266Z,43.10
2018-03-27T05:53:42.067Z,43.20
2018-03-27T05:54:14.092Z,43.20
2018-03-27T05:54:46.943Z,43.10
2018-03-27T05:55:18.961Z,43.00
2018-03-27T05:55:51.046Z,42.90
2018-03-27T05:56:23.045Z,43.10
2018-03-27T05:56:55.068Z,43.10
2018-03-27T05:57:27.865Z,42.90
2018-03-27T05:57:59.891Z,42.90
2018-03-27T05:58:32.689Z,42.70
2018-03-27T05:59:04.748Z,42.70
2018-03-27T05:59:36.781Z,42.70
2018-03-27T06:00:08.799Z,42.80
2018-03-27T06:00:41.596Z,42.70
2018-03-27T06:01:13.625Z,42.70
2018-03-27T06:01:46.443Z,42.60
2018-03-27T06:02:18.468Z,42.60
2018-03-27T06:02:50.495Z,42.60
2018-03-27T06:03:23.316Z,42.60
2018-03-27T06:03:55.347Z,42.60
2018-03-27T06:04:27.397Z,42.50
2018-03-27T06:04:59.430Z,42.50
2018-03-27T06:05:32.207Z,42.40
2018-03-27T06:06:04.244Z,42.40
2018-03-27T06:06:37.099Z,42.40
2018-03-27T06:07:09.115Z,43.10
2018-03-27T06:07:41.141Z,42.30
2018-03-27T06:08:13.169Z,42.30
2018-03-27T06:08:45.961Z,42.20
2018-03-27T06:09:17.999Z,42.20
2018-03-27T06:09:50.042Z,42.20
2018-03-27T06:10:22.852Z,42.10
2018-03-27T06:10:54.875Z,42.00
2018-03-27T06:11:26.900Z,42.00
2018-03-27T06:11:59.719Z,42.20
2018-03-27T06:12:31.748Z,42.20
2018-03-27T06:13:03.780Z,42.10
2018-03-27T06:13:36.575Z,42.10
2018-03-27T06:14:08.588Z,42.10
2018-03-27T06:14:41.398Z,42.00
2018-03-27T06:15:13.416Z,42.00
2018-03-27T06:15:46.199Z,42.10
2018-03-27T06:16:18.276Z,42.00
2018-03-27T06:16:50.316Z,41.90
2018-03-27T06:17:22.351Z,41.90
2018-03-27T06:17:55.148Z,41.80
2018-03-27T06:18:27.181Z,41.80
2018-03-27T06:18:59.204Z,42.00
2018-03-27T06:19:32.010Z,41.90
2018-03-27T06:20:04.046Z,41.90
2018-03-27T06:20:36.837Z,41.80
2018-03-27T06:21:08.877Z,41.70
2018-03-27T06:21:40.912Z,41.60
2018-03-27T06:22:12.979Z,41.50
2018-03-27T06:22:45.012Z,41.60
2018-03-27T06:23:17.809Z,41.70
2018-03-27T06:23:49.835Z,41.60
2018-03-27T06:24:21.855Z,41.60
2018-03-27T06:24:53.897Z,41.50
2018-03-27T06:25:25.909Z,41.40
2018-03-27T06:25:57.941Z,41.40
2018-03-27T06:26:29.983Z,41.40
2018-03-27T06:27:02.832Z,41.30
2018-03-27T06:27:34.831Z,41.20
2018-03-27T06:28:06.847Z,41.10
2018-03-27T06:28:39.646Z,41.30
2018-03-27T06:29:11.668Z,41.20
2018-03-27T06:29:44.460Z,41.30
2018-03-27T06:30:16.517Z,41.20
2018-03-27T06:30:48.554Z,41.20
2018-03-27T06:31:20.593Z,41.10
2018-03-27T06:31:53.398Z,41.00
2018-03-27T06:32:25.436Z,41.00
2018-03-27T06:32:57.469Z,41.10
2018-03-27T06:33:30.268Z,41.10
2018-03-27T06:34:02.313Z,41.00
2018-03-27T06:34:34.343Z,41.00
2018-03-27T06:35:07.183Z,41.00
2018-03-27T06:35:39.225Z,41.00
2018-03-27T06:36:11.242Z,41.00
2018-03-27T06:36:43.259Z,40.90
2018-03-27T06:37:16.048Z,41.90
2018-03-27T06:37:48.106Z,41.10
2018-03-27T06:38:20.138Z,41.00
2018-03-27T06:38:52.931Z,40.90
2018-03-27T06:39:24.957Z,40.90
2018-03-27T06:39:57.753Z,40.80
2018-03-27T06:40:29.811Z,40.80
2018-03-27T06:41:01.840Z,40.80
2018-03-27T06:41:33.868Z,40.90
2018-03-27T06:42:06.704Z,40.80
2018-03-27T06:42:38.708Z,40.80
2018-03-27T06:43:11.497Z,40.70
2018-03-27T06:43:43.532Z,40.70
2018-03-27T06:44:15.565Z,40.70
2018-03-27T06:44:48.358Z,40.80
2018-03-27T06:45:20.400Z,40.70
2018-03-27T06:45:52.429Z,40.70
2018-03-27T06:46:24.526Z,40.80
2018-03-27T06:46:56.484Z,40.80
2018-03-27T06:47:28.505Z,40.70
2018-03-27T06:48:00.537Z,40.70
2018-03-27T06:48:33.342Z,40.80
2018-03-27T06:49:05.367Z,40.70
2018-03-27T06:49:38.153Z,40.70
2018-03-27T06:50:10.191Z,40.70
2018-03-27T06:50:43.007Z,40.70
2018-03-27T06:51:15.029Z,40.60
2018-03-27T06:51:47.054Z,40.60
2018-03-27T06:52:19.836Z,40.60
2018-03-27T06:52:52.632Z,40.60
2018-03-27T06:53:24.665Z,40.60
2018-03-27T06:53:56.702Z,40.50
2018-03-27T06:54:29.498Z,40.60
2018-03-27T06:55:01.524Z,40.50